Terminal Aerodrome Forecast
Issued by NWS

Home | Current Version | Previous Version | Text Only | Print | Product List | Glossary On
Versions: 1 2 3 4 5 6 7 8 9 10 11 12 13 14 15 16 17 18 19 20 21 22
000
FTUS43 KICT 291517 AAC
TAFSLN
TAF AMD
KSLN 291517Z 2915/3012 35013KT P6SM SCT015 BKN030
      TEMPO 2915/2917 BKN015
     FM291700 01010KT P6SM SCT035
     FM300000 07006KT P6SM SKC
     FM300800 VRB04KT 3SM BR BKN015=

USA.gov is the U.S. government's official web portal to all federal, state and local government web resources and services.